createdAt,value
2019-03-31T00:00:16.283Z,78.70
2019-03-31T00:02:45.084Z,103.45
2019-03-31T00:05:13.843Z,86.95
2019-03-31T00:07:42.583Z,83.90
2019-03-31T00:10:11.383Z,82.72
2019-03-31T00:12:40.145Z,75.20
2019-03-31T00:15:09.387Z,81.92
2019-03-31T00:17:38.206Z,73.90
2019-03-31T00:20:07.363Z,141.10
2019-03-31T00:22:36.204Z,85.80
2019-03-31T00:25:06.262Z,80.87
2019-03-31T00:27:35.044Z,76.82
2019-03-31T00:30:04.003Z,64.12
2019-03-31T00:32:32.805Z,73.45
2019-03-31T00:35:01.765Z,71.02
2019-03-31T00:37:30.526Z,76.02
2019-03-31T00:40:00.525Z,75.62
2019-03-31T00:42:29.266Z,77.78
2019-03-31T00:44:58.023Z,79.45
2019-03-31T00:47:26.826Z,80.85
2019-03-31T00:49:56.583Z,82.85
2019-03-31T00:52:25.743Z,82.72
2019-03-31T00:54:54.547Z,78.85
2019-03-31T00:57:23.384Z,69.07
2019-03-31T00:59:52.127Z,77.20
2019-03-31T01:02:22.485Z,80.80
2019-03-31T01:04:51.277Z,77.95
2019-03-31T01:07:21.725Z,84.90
2019-03-31T01:09:50.643Z,78.72
2019-03-31T01:12:19.804Z,74.37
2019-03-31T01:14:48.644Z,80.62
2019-03-31T01:17:19.024Z,84.37
2019-03-31T01:19:48.065Z,85.20
2019-03-31T01:22:16.843Z,81.55
2019-03-31T01:24:45.643Z,87.10
2019-03-31T01:27:14.804Z,84.47
2019-03-31T01:29:43.583Z,83.05
2019-03-31T01:32:12.583Z,83.12
2019-03-31T01:34:41.344Z,76.25
2019-03-31T01:37:10.383Z,82.37
2019-03-31T01:39:39.435Z,75.47
2019-03-31T01:42:08.183Z,88.12
2019-03-31T01:44:36.923Z,76.42
2019-03-31T01:47:05.965Z,81.37
2019-03-31T01:49:34.803Z,79.97
2019-03-31T01:52:03.584Z,77.75
2019-03-31T01:54:32.387Z,88.82
2019-03-31T01:57:01.149Z,86.22
2019-03-31T01:59:29.904Z,83.10
2019-03-31T02:02:04.477Z,88.17
2019-03-31T02:04:29.203Z,85.38
2019-03-31T02:06:57.968Z,84.32
2019-03-31T02:09:26.764Z,83.78
2019-03-31T02:11:55.503Z,78.55
2019-03-31T02:14:24.243Z,73.80
2019-03-31T02:16:53.063Z,78.78
2019-03-31T02:19:21.823Z,80.00
2019-03-31T02:21:50.583Z,84.75
2019-03-31T02:24:19.385Z,78.42
2019-03-31T02:26:48.143Z,80.92
2019-03-31T02:29:16.884Z,89.70
2019-03-31T02:31:45.723Z,86.50
2019-03-31T02:34:14.475Z,85.87
2019-03-31T02:36:43.325Z,87.45
2019-03-31T02:39:12.126Z,86.12
2019-03-31T02:41:40.869Z,80.20
2019-03-31T02:44:09.623Z,79.22
2019-03-31T02:46:38.445Z,84.75
2019-03-31T02:49:07.185Z,87.75
2019-03-31T02:51:35.945Z,90.05
2019-03-31T02:54:04.838Z,90.03
2019-03-31T02:56:35.811Z,90.45
2019-03-31T02:59:04.948Z,85.45
2019-03-31T03:01:34.803Z,89.83
2019-03-31T03:04:07.730Z,88.62
2019-03-31T03:06:35.918Z,89.45
2019-03-31T03:09:06.370Z,86.35
2019-03-31T03:11:35.949Z,83.87
2019-03-31T03:14:05.706Z,78.72
2019-03-31T03:16:34.523Z,77.30
2019-03-31T03:19:03.270Z,86.50
2019-03-31T03:21:32.005Z,80.03
2019-03-31T03:24:00.804Z,87.88
2019-03-31T03:26:29.565Z,84.65
2019-03-31T03:28:58.292Z,81.75
2019-03-31T03:31:27.108Z,78.33
2019-03-31T03:33:55.885Z,95.03
2019-03-31T03:36:24.684Z,96.97
2019-03-31T03:38:53.507Z,88.22
2019-03-31T03:41:22.264Z,77.22
2019-03-31T03:43:56.115Z,100.95
2019-03-31T03:46:21.584Z,98.17
2019-03-31T03:48:50.376Z,114.62
2019-03-31T03:51:19.265Z,99.72
2019-03-31T03:53:48.083Z,99.07
2019-03-31T03:56:16.844Z,91.87
2019-03-31T03:58:45.605Z,89.05
2019-03-31T04:01:16.071Z,89.35
2019-03-31T04:03:44.788Z,91.57
2019-03-31T04:06:13.545Z,93.55
2019-03-31T04:08:42.343Z,95.67
2019-03-31T04:11:21.586Z,93.97
2019-03-31T04:13:49.977Z,102.02
2019-03-31T04:16:18.824Z,105.27
2019-03-31T04:18:47.584Z,114.45
2019-03-31T04:21:16.408Z,112.15
2019-03-31T04:23:45.175Z,122.53
2019-03-31T04:26:13.904Z,114.52
2019-03-31T04:28:42.705Z,115.28
2019-03-31T04:31:11.445Z,117.97
2019-03-31T04:33:50.361Z,112.52
2019-03-31T04:36:11.246Z,110.00
2019-03-31T04:38:40.025Z,107.50
2019-03-31T04:41:08.768Z,101.85
2019-03-31T04:43:37.565Z,103.57
2019-03-31T04:46:06.323Z,95.50
2019-03-31T04:48:35.085Z,103.90
2019-03-31T04:51:03.905Z,103.35
2019-03-31T04:53:32.645Z,102.72
2019-03-31T04:56:01.384Z,94.52
2019-03-31T04:58:30.184Z,95.55
2019-03-31T05:00:58.944Z,95.28
2019-03-31T05:03:27.686Z,95.87
2019-03-31T05:05:56.570Z,86.95
2019-03-31T05:08:25.326Z,92.40
2019-03-31T05:10:54.067Z,93.07
2019-03-31T05:13:22.864Z,87.12
2019-03-31T05:15:51.625Z,92.10
2019-03-31T05:18:20.358Z,89.30
2019-03-31T05:20:49.169Z,90.92
2019-03-31T05:23:17.924Z,90.75
2019-03-31T05:25:46.664Z,86.00
2019-03-31T05:28:15.486Z,96.95
2019-03-31T05:30:44.223Z,84.72
2019-03-31T05:33:13.041Z,93.50
2019-03-31T05:35:41.921Z,82.55
2019-03-31T05:38:10.684Z,80.72
2019-03-31T05:40:39.468Z,75.40
2019-03-31T05:43:08.274Z,76.85
2019-03-31T05:45:36.988Z,73.87
2019-03-31T05:48:05.789Z,70.30
2019-03-31T05:50:34.710Z,71.28
2019-03-31T05:53:03.417Z,72.42
2019-03-31T05:55:32.228Z,69.00
2019-03-31T05:58:01.028Z,67.97
2019-03-31T06:00:32.589Z,68.67
2019-03-31T06:03:01.389Z,71.35
2019-03-31T06:05:30.230Z,68.87
2019-03-31T06:07:58.988Z,65.87
2019-03-31T06:10:27.828Z,63.98
2019-03-31T06:12:56.668Z,67.12
2019-03-31T06:15:25.429Z,59.27
2019-03-31T06:17:54.190Z,55.12
2019-03-31T06:20:23.032Z,61.98
2019-03-31T06:22:51.788Z,52.93
2019-03-31T06:25:20.557Z,51.83
2019-03-31T06:27:49.515Z,51.37
2019-03-31T06:30:18.634Z,48.48
2019-03-31T06:32:47.388Z,49.30
2019-03-31T06:35:16.229Z,49.27
2019-03-31T06:37:44.989Z,49.65
2019-03-31T06:40:13.794Z,46.42
2019-03-31T06:42:42.629Z,46.05
2019-03-31T06:45:11.548Z,44.60
2019-03-31T06:47:40.349Z,44.23
2019-03-31T06:50:09.594Z,43.60
2019-03-31T06:52:38.389Z,43.68
2019-03-31T06:55:08.348Z,40.40
2019-03-31T06:57:37.192Z,45.05
2019-03-31T07:00:09.311Z,43.20
2019-03-31T07:02:39.668Z,39.15
2019-03-31T07:05:10.950Z,39.63
2019-03-31T07:07:39.753Z,37.83
2019-03-31T07:10:08.629Z,39.50
2019-03-31T07:12:37.592Z,39.67
2019-03-31T07:15:09.828Z,39.98
2019-03-31T07:17:38.590Z,38.98
2019-03-31T07:20:09.634Z,38.55
2019-03-31T07:22:38.468Z,36.25
2019-03-31T07:25:12.309Z,33.98
2019-03-31T07:27:41.269Z,33.67
2019-03-31T07:30:15.628Z,39.05
2019-03-31T07:32:44.388Z,37.88
2019-03-31T07:35:18.667Z,37.10
2019-03-31T07:37:47.636Z,36.85
2019-03-31T07:40:20.295Z,36.33
2019-03-31T07:42:51.065Z,37.85
2019-03-31T07:45:20.590Z,35.63
2019-03-31T07:47:50.950Z,39.65
2019-03-31T07:50:20.069Z,38.50
2019-03-31T07:52:48.830Z,33.83
2019-03-31T07:55:18.789Z,39.08
2019-03-31T07:57:47.557Z,36.73
2019-03-31T08:00:19.468Z,32.15
2019-03-31T08:02:48.309Z,34.38
2019-03-31T08:05:17.311Z,37.80
2019-03-31T08:07:46.508Z,33.78
2019-03-31T08:10:15.828Z,33.23
2019-03-31T08:12:44.630Z,29.90
2019-03-31T08:15:13.630Z,34.60
2019-03-31T08:17:42.902Z,32.35
2019-03-31T08:20:16.908Z,34.23
2019-03-31T08:22:45.711Z,30.02
2019-03-31T08:25:15.549Z,29.55
2019-03-31T08:27:44.438Z,29.87
2019-03-31T08:30:15.348Z,28.92
2019-03-31T08:32:44.189Z,33.98
2019-03-31T08:35:13.548Z,32.10
2019-03-31T08:37:42.349Z,32.93
2019-03-31T08:40:13.118Z,30.20
2019-03-31T08:42:42.029Z,32.17
2019-03-31T08:45:11.108Z,30.40
2019-03-31T08:47:39.948Z,30.77
2019-03-31T08:50:09.108Z,26.82
2019-03-31T08:52:37.988Z,29.35
2019-03-31T08:55:07.713Z,29.95
2019-03-31T08:57:36.591Z,26.35
2019-03-31T09:00:08.239Z,24.43
2019-03-31T09:02:37.070Z,27.40
2019-03-31T09:05:08.589Z,23.73
2019-03-31T09:07:37.428Z,24.32
2019-03-31T09:10:08.308Z,26.33
2019-03-31T09:12:38.109Z,24.45
2019-03-31T09:15:11.513Z,24.57
2019-03-31T09:17:40.468Z,21.12
2019-03-31T09:20:10.030Z,20.90
2019-03-31T09:22:38.948Z,23.80
2019-03-31T09:25:08.311Z,21.40
2019-03-31T09:27:37.111Z,21.57
2019-03-31T09:30:08.749Z,26.00
2019-03-31T09:32:37.503Z,28.30
2019-03-31T09:35:08.848Z,26.57
2019-03-31T09:37:37.675Z,25.55
2019-03-31T09:40:11.354Z,25.23
2019-03-31T09:42:40.302Z,27.25
2019-03-31T09:45:10.189Z,25.82
2019-03-31T09:47:39.533Z,24.23
2019-03-31T09:50:17.000Z,25.88
2019-03-31T09:52:44.150Z,24.70
2019-03-31T09:55:13.126Z,25.82
2019-03-31T09:57:41.989Z,25.35
2019-03-31T10:00:19.628Z,26.80
2019-03-31T10:02:48.468Z,34.30
2019-03-31T10:05:17.434Z,31.23
2019-03-31T10:07:46.709Z,27.85
2019-03-31T10:10:32.628Z,27.07
2019-03-31T10:13:01.508Z,34.98
2019-03-31T10:15:30.273Z,32.00
2019-03-31T10:17:59.111Z,29.72
2019-03-31T10:20:31.316Z,32.83
2019-03-31T10:22:58.622Z,31.93
2019-03-31T10:25:27.508Z,32.73
2019-03-31T10:27:56.992Z,34.67
2019-03-31T10:30:36.864Z,33.60
2019-03-31T10:33:06.705Z,35.52
2019-03-31T10:35:35.433Z,33.92
2019-03-31T10:38:04.908Z,35.28
2019-03-31T10:40:33.671Z,31.05
2019-03-31T10:43:02.396Z,37.25
2019-03-31T10:45:31.268Z,33.00
2019-03-31T10:48:00.049Z,31.90
2019-03-31T10:50:28.891Z,32.20
2019-03-31T10:52:59.249Z,29.82
2019-03-31T10:55:28.069Z,34.20
2019-03-31T10:57:56.878Z,31.15
2019-03-31T11:00:36.831Z,32.17
2019-03-31T11:03:09.877Z,35.25
2019-03-31T11:05:39.070Z,31.67
2019-03-31T11:08:08.032Z,31.35
2019-03-31T11:10:37.161Z,30.85
2019-03-31T11:13:06.150Z,33.73
2019-03-31T11:15:35.349Z,32.38
2019-03-31T11:18:04.628Z,33.30
2019-03-31T11:20:33.390Z,28.85
2019-03-31T11:23:03.788Z,28.55
2019-03-31T11:25:32.588Z,29.72
2019-03-31T11:28:01.389Z,30.00
2019-03-31T11:30:30.348Z,27.42
2019-03-31T11:32:59.148Z,27.40
2019-03-31T11:35:27.953Z,31.90
2019-03-31T11:37:56.788Z,29.50
2019-03-31T11:40:25.636Z,28.23
2019-03-31T11:42:54.438Z,27.55
2019-03-31T11:45:23.269Z,27.98
2019-03-31T11:47:52.068Z,29.90
2019-03-31T11:50:20.988Z,27.40
2019-03-31T11:52:49.827Z,25.88
2019-03-31T11:55:18.628Z,29.60
2019-03-31T11:57:48.111Z,25.45
2019-03-31T12:00:19.909Z,25.00
2019-03-31T12:02:48.668Z,26.87
2019-03-31T12:05:19.148Z,24.70
2019-03-31T12:07:48.095Z,27.58
2019-03-31T12:10:19.794Z,28.45
2019-03-31T12:12:48.879Z,25.10
2019-03-31T12:15:17.830Z,25.55
2019-03-31T12:17:46.628Z,27.20
2019-03-31T12:20:15.629Z,26.02
2019-03-31T12:22:44.478Z,26.70
2019-03-31T12:25:13.389Z,31.30
2019-03-31T12:27:42.189Z,39.75
2019-03-31T12:30:11.429Z,28.00
2019-03-31T12:32:41.030Z,28.52
2019-03-31T12:35:09.950Z,24.32
2019-03-31T12:37:42.580Z,25.75
2019-03-31T12:40:15.307Z,27.65
2019-03-31T12:42:44.310Z,26.37
2019-03-31T12:45:13.228Z,25.12
2019-03-31T12:47:43.159Z,21.42
2019-03-31T12:50:12.868Z,27.48
2019-03-31T12:52:47.462Z,26.12
2019-03-31T12:55:12.108Z,20.90
2019-03-31T12:57:40.948Z,26.73
2019-03-31T13:00:09.890Z,24.00
2019-03-31T13:02:38.717Z,25.05
2019-03-31T13:05:07.668Z,24.70
2019-03-31T13:07:36.467Z,27.32
2019-03-31T13:10:06.473Z,25.77
2019-03-31T13:12:36.228Z,29.10
2019-03-31T13:15:06.430Z,32.75
2019-03-31T13:17:35.239Z,23.47
2019-03-31T13:20:05.949Z,27.22
2019-03-31T13:22:34.828Z,21.77
2019-03-31T13:25:04.589Z,26.37
2019-03-31T13:27:33.428Z,25.12
2019-03-31T13:30:02.189Z,25.37
2019-03-31T13:32:30.992Z,28.23
2019-03-31T13:34:59.829Z,34.53
2019-03-31T13:37:28.597Z,30.35
2019-03-31T13:39:57.388Z,61.58
2019-03-31T13:42:26.229Z,27.00
2019-03-31T13:44:55.068Z,26.75
2019-03-31T13:47:23.868Z,27.58
2019-03-31T13:49:52.712Z,35.63
2019-03-31T13:52:21.468Z,27.93
2019-03-31T13:54:50.269Z,26.35
2019-03-31T13:57:19.601Z,28.02
2019-03-31T13:59:48.853Z,24.98
2019-03-31T14:02:17.749Z,24.57
2019-03-31T14:04:51.687Z,29.20
2019-03-31T14:07:17.629Z,28.92
2019-03-31T14:09:46.429Z,25.15
2019-03-31T14:12:15.269Z,26.62
2019-03-31T14:14:44.069Z,25.75
2019-03-31T14:17:12.911Z,23.57
2019-03-31T14:19:41.870Z,24.23
2019-03-31T14:22:10.628Z,27.42
2019-03-31T14:24:39.557Z,24.60
2019-03-31T14:27:08.509Z,27.35
2019-03-31T14:29:37.359Z,23.07
2019-03-31T14:32:06.149Z,22.48
2019-03-31T14:34:35.076Z,20.50
2019-03-31T14:37:03.869Z,22.73
2019-03-31T14:39:32.880Z,23.62
2019-03-31T14:42:01.791Z,23.15
2019-03-31T14:44:30.669Z,23.12
2019-03-31T14:46:59.477Z,25.02
2019-03-31T14:49:28.310Z,26.77
2019-03-31T14:51:57.110Z,26.57
2019-03-31T14:54:25.909Z,24.45
2019-03-31T14:56:54.909Z,25.57
2019-03-31T14:59:23.797Z,27.55
2019-03-31T15:01:52.590Z,26.73
2019-03-31T15:04:21.471Z,24.00
2019-03-31T15:06:50.389Z,27.00
2019-03-31T15:09:19.269Z,26.75
2019-03-31T15:11:48.152Z,25.20
2019-03-31T15:14:17.269Z,26.55
2019-03-31T15:16:48.415Z,25.75
2019-03-31T15:19:16.629Z,28.60
2019-03-31T15:21:45.549Z,25.57
2019-03-31T15:24:14.301Z,27.02
2019-03-31T15:26:43.269Z,26.65
2019-03-31T15:29:12.149Z,26.68
2019-03-31T15:31:40.881Z,26.68
2019-03-31T15:34:09.714Z,27.37
2019-03-31T15:36:38.591Z,26.93
2019-03-31T15:39:09.478Z,23.80
2019-03-31T15:41:38.461Z,27.02
2019-03-31T15:44:07.239Z,26.25
2019-03-31T15:46:36.032Z,28.70
2019-03-31T15:49:05.069Z,30.15
2019-03-31T15:51:33.885Z,27.93
2019-03-31T15:54:02.789Z,31.23
2019-03-31T15:56:31.641Z,32.08
2019-03-31T15:59:00.593Z,47.55
2019-03-31T16:01:29.509Z,36.60
2019-03-31T16:03:58.434Z,31.37
2019-03-31T16:06:27.222Z,30.10
2019-03-31T16:08:56.229Z,36.73
2019-03-31T16:11:25.040Z,33.63
2019-03-31T16:13:54.105Z,29.15
2019-03-31T16:16:22.910Z,29.92
2019-03-31T16:18:53.309Z,34.90
2019-03-31T16:21:22.213Z,54.05
2019-03-31T16:23:51.028Z,63.30
2019-03-31T16:26:20.013Z,62.73
2019-03-31T16:28:48.909Z,48.78
2019-03-31T16:31:17.749Z,40.40
2019-03-31T16:33:46.591Z,36.25
2019-03-31T16:36:15.429Z,36.95
2019-03-31T16:38:44.309Z,33.10
2019-03-31T16:41:13.228Z,31.80
2019-03-31T16:43:42.037Z,31.02
2019-03-31T16:46:10.829Z,35.17
2019-03-31T16:48:39.713Z,35.00
2019-03-31T16:51:08.830Z,30.23
2019-03-31T16:53:37.738Z,35.05
2019-03-31T16:56:06.670Z,35.55
2019-03-31T16:58:35.559Z,34.45
2019-03-31T17:01:04.639Z,38.28
2019-03-31T17:03:33.589Z,40.10
2019-03-31T17:06:02.373Z,35.98
2019-03-31T17:08:32.070Z,42.70
2019-03-31T17:11:00.959Z,38.38
2019-03-31T17:13:29.909Z,31.17
2019-03-31T17:15:58.750Z,38.25
2019-03-31T17:18:27.549Z,34.98
2019-03-31T17:20:56.431Z,33.40
2019-03-31T17:23:25.433Z,37.45
2019-03-31T17:25:54.310Z,34.65
2019-03-31T17:28:23.229Z,34.73
2019-03-31T17:30:52.138Z,35.55
2019-03-31T17:33:20.949Z,32.15
2019-03-31T17:35:49.758Z,35.80
2019-03-31T17:38:20.149Z,36.75
2019-03-31T17:40:49.028Z,34.70
2019-03-31T17:43:18.918Z,28.75
2019-03-31T17:45:47.879Z,32.50
2019-03-31T17:48:16.789Z,31.00
2019-03-31T17:50:45.629Z,29.95
2019-03-31T17:53:14.550Z,31.62
2019-03-31T17:55:43.469Z,29.12
2019-03-31T17:58:12.351Z,30.88
2019-03-31T18:00:41.470Z,29.98
2019-03-31T18:03:10.310Z,32.65
2019-03-31T18:05:39.109Z,28.73
2019-03-31T18:08:07.878Z,33.20
2019-03-31T18:10:36.953Z,49.27
2019-03-31T18:13:05.798Z,33.13
2019-03-31T18:15:34.709Z,31.82
2019-03-31T18:18:05.805Z,27.67
2019-03-31T18:20:38.669Z,34.83
2019-03-31T18:23:07.593Z,31.50
2019-03-31T18:25:36.548Z,29.98
2019-03-31T18:28:05.432Z,31.40
2019-03-31T18:30:34.270Z,31.05
2019-03-31T18:33:04.789Z,31.33
2019-03-31T18:35:33.750Z,28.40
2019-03-31T18:38:02.668Z,28.57
2019-03-31T18:40:35.239Z,26.93
2019-03-31T18:43:02.388Z,31.15
2019-03-31T18:45:31.308Z,30.15
2019-03-31T18:48:01.515Z,28.73
2019-03-31T18:50:30.469Z,28.52
2019-03-31T18:53:00.709Z,30.32
2019-03-31T18:55:31.350Z,27.02
2019-03-31T18:58:04.708Z,23.62
2019-03-31T19:00:44.709Z,22.35
2019-03-31T19:03:33.588Z,27.58
2019-03-31T19:06:06.999Z,25.85
2019-03-31T19:08:46.828Z,24.77
2019-03-31T19:11:26.631Z,24.52
2019-03-31T19:14:12.369Z,24.75
2019-03-31T19:16:43.749Z,24.30
2019-03-31T19:19:18.350Z,28.40
2019-03-31T19:21:51.472Z,41.18
2019-03-31T19:24:27.790Z,30.80
2019-03-31T19:27:07.230Z,24.18
2019-03-31T19:29:37.620Z,24.10
2019-03-31T19:32:20.264Z,26.62
2019-03-31T19:34:53.708Z,27.55
2019-03-31T19:37:27.149Z,28.60
2019-03-31T19:40:00.470Z,23.45
2019-03-31T19:42:37.070Z,22.77
2019-03-31T19:45:18.112Z,22.60
2019-03-31T19:48:03.508Z,24.92
2019-03-31T19:50:39.869Z,23.30
2019-03-31T19:53:26.553Z,24.10
2019-03-31T19:56:07.707Z,27.40
2019-03-31T19:58:54.149Z,23.30
2019-03-31T20:01:36.590Z,21.97
2019-03-31T20:04:16.149Z,20.32
2019-03-31T20:06:49.448Z,20.40
2019-03-31T20:09:19.953Z,19.80
2019-03-31T20:11:53.190Z,25.12
2019-03-31T20:14:32.575Z,27.77
2019-03-31T20:17:15.277Z,24.37
2019-03-31T20:20:03.869Z,27.73
2019-03-31T20:22:43.348Z,29.57
2019-03-31T20:25:31.949Z,26.75
2019-03-31T20:28:05.189Z,24.32
2019-03-31T20:30:41.268Z,29.48
2019-03-31T20:33:27.993Z,26.12
2019-03-31T20:36:10.388Z,25.75
2019-03-31T20:38:46.948Z,24.92
2019-03-31T20:41:17.362Z,26.62
2019-03-31T20:43:53.554Z,24.30
2019-03-31T20:46:23.453Z,26.82
2019-03-31T20:48:52.948Z,22.45
2019-03-31T20:51:21.948Z,26.50
2019-03-31T20:53:50.908Z,24.10
2019-03-31T20:56:19.711Z,26.70
2019-03-31T20:58:48.834Z,26.93
2019-03-31T21:01:17.789Z,28.55
2019-03-31T21:03:46.669Z,25.27
2019-03-31T21:06:15.589Z,28.98
2019-03-31T21:08:44.510Z,25.05
2019-03-31T21:11:13.269Z,29.05
2019-03-31T21:13:42.028Z,24.02
2019-03-31T21:16:10.988Z,29.60
2019-03-31T21:18:39.789Z,25.55
2019-03-31T21:21:08.591Z,25.32
2019-03-31T21:23:37.436Z,23.50
2019-03-31T21:26:06.195Z,25.70
2019-03-31T21:28:34.991Z,24.63
2019-03-31T21:31:03.828Z,26.10
2019-03-31T21:33:32.629Z,26.82
2019-03-31T21:36:01.428Z,27.32
2019-03-31T21:38:30.268Z,28.00
2019-03-31T21:40:59.151Z,25.27
2019-03-31T21:43:27.950Z,24.55
2019-03-31T21:45:56.788Z,26.70
2019-03-31T21:48:25.590Z,24.05
2019-03-31T21:50:54.348Z,24.55
2019-03-31T21:53:23.188Z,21.45
2019-03-31T21:55:51.949Z,26.33
2019-03-31T21:58:20.708Z,23.55
2019-03-31T22:00:54.428Z,21.25
2019-03-31T22:03:23.268Z,25.97
2019-03-31T22:05:52.188Z,24.80
2019-03-31T22:08:21.028Z,27.73
2019-03-31T22:10:49.828Z,25.27
2019-03-31T22:13:18.628Z,26.10
2019-03-31T22:15:47.468Z,22.40
2019-03-31T22:18:16.868Z,25.57
2019-03-31T22:20:47.473Z,26.33
2019-03-31T22:23:16.189Z,25.43
2019-03-31T22:25:44.989Z,24.40
2019-03-31T22:28:13.788Z,24.32
2019-03-31T22:30:42.631Z,22.30
2019-03-31T22:33:11.388Z,26.05
2019-03-31T22:35:40.149Z,22.40
2019-03-31T22:38:08.988Z,27.02
2019-03-31T22:40:37.748Z,25.80
2019-03-31T22:43:08.036Z,25.27
2019-03-31T22:45:37.028Z,24.75
2019-03-31T22:48:05.788Z,30.23
2019-03-31T22:50:34.588Z,27.55
2019-03-31T22:53:03.655Z,26.37
2019-03-31T22:55:32.428Z,26.52
2019-03-31T22:58:01.188Z,28.30
2019-03-31T23:00:30.029Z,23.70
2019-03-31T23:02:58.868Z,26.42
2019-03-31T23:05:27.629Z,27.77
2019-03-31T23:07:56.469Z,29.40
2019-03-31T23:10:25.268Z,27.32
2019-03-31T23:12:54.028Z,27.10
2019-03-31T23:15:22.868Z,26.27
2019-03-31T23:17:51.669Z,25.65
2019-03-31T23:20:20.430Z,27.62
2019-03-31T23:22:49.269Z,25.50
2019-03-31T23:25:18.028Z,27.05
2019-03-31T23:27:46.829Z,25.25
2019-03-31T23:30:15.871Z,26.68
2019-03-31T23:32:44.628Z,26.57
2019-03-31T23:35:13.508Z,23.60
2019-03-31T23:37:42.348Z,25.30
2019-03-31T23:40:11.197Z,27.80
2019-03-31T23:42:40.068Z,26.95
2019-03-31T23:45:09.234Z,30.17
2019-03-31T23:47:37.988Z,28.30
2019-03-31T23:50:06.869Z,30.25
2019-03-31T23:52:35.708Z,31.42
2019-03-31T23:55:04.949Z,30.72
2019-03-31T23:57:40.234Z,32.30
